Time,TemperatureF,DewpointF,PressureIn,WindDirection,WindDirectionDegrees,WindSpeedMPH,WindSpeedGustMPH,Humidity,HourlyPrecipIn,Conditions,Clouds,dailyrainin,SoftwareType,DateUTC
2012-11-10 00:00:00,52.8,45.1,29.71,West,270,6.0,14.0,75,0.00,,,0.00,WUHU216DAVISVP2,2012-11-10 08:00:00,
2012-11-10 00:30:00,49.9,45.9,29.73,WSW,248,4.0,11.0,86,0.00,,,0.00,WUHU216DAVISVP2,2012-11-10 08:30:00,
2012-11-10 01:00:00,49.2,46.1,29.74,SW,225,2.0,9.0,89,0.05,,,0.05,WUHU216DAVISVP2,2012-11-10 09:00:00,
2012-11-10 01:30:00,49.1,44.5,29.76,WSW,248,3.0,10.0,84,0.01,,,0.06,WUHU216DAVISVP2,2012-11-10 09:30:00,
2012-11-10 02:00:00,47.4,44.0,29.76,WSW,248,4.0,14.0,88,0.00,,,0.06,WUHU216DAVISVP2,2012-11-10 10:00:00,
2012-11-10 02:30:00,46.9,43.8,29.76,SW,225,1.0,4.0,89,0.01,,,0.07,WUHU216DAVISVP2,2012-11-10 10:30:00,
2012-11-10 03:00:00,46.7,43.9,29.79,SW,225,2.0,6.0,90,0.02,,,0.09,WUHU216DAVISVP2,2012-11-10 11:00:00,
2012-11-10 03:30:00,46.6,43.5,29.80,SSW,203,2.0,5.0,89,0.03,,,0.12,WUHU216DAVISVP2,2012-11-10 11:30:00,
2012-11-10 04:00:00,46.7,43.0,29.80,SE,135,2.0,6.0,87,0.01,,,0.13,WUHU216DAVISVP2,2012-11-10 12:00:00,
2012-11-10 04:30:00,47.1,41.2,29.81,SE,135,2.0,17.0,80,0.01,,,0.14,WUHU216DAVISVP2,2012-11-10 12:30:00,
2012-11-10 05:00:00,47.2,41.7,29.82,ESE,113,3.0,10.0,81,0.00,,,0.14,WUHU216DAVISVP2,2012-11-10 13:00:00,
2012-11-10 05:30:00,47.4,40.6,29.82,SE,135,3.0,7.0,77,0.00,,,0.14,WUHU216DAVISVP2,2012-11-10 13:30:00,
2012-11-10 06:00:00,47.2,41.7,29.84,SE,135,2.0,5.0,81,0.00,,,0.14,WUHU216DAVISVP2,2012-11-10 14:00:00,
2012-11-10 06:30:00,47.3,41.4,29.85,SSE,158,2.0,7.0,80,0.00,,,0.14,WUHU216DAVISVP2,2012-11-10 14:30:00,
2012-11-10 07:00:00,47.6,41.7,29.87,SSE,158,1.0,5.0,80,0.00,,,0.14,WUHU216DAVISVP2,2012-11-10 15:00:00,
2012-11-10 07:30:00,50.1,42.1,29.88,SSE,158,2.0,6.0,74,0.00,,,0.14,WUHU216DAVISVP2,2012-11-10 15:30:00,
2012-11-10 08:00:00,52.6,41.2,29.89,SSW,203,3.0,7.0,65,0.00,,,0.14,WUHU216DAVISVP2,2012-11-10 16:00:00,
2012-11-10 08:30:00,53.9,38.1,29.90,SW,225,3.0,10.0,55,0.00,,,0.14,WUHU216DAVISVP2,2012-11-10 16:30:00,
2012-11-10 09:00:00,54.4,38.6,29.91,WSW,248,3.0,10.0,55,0.00,,,0.14,WUHU216DAVISVP2,2012-11-10 17:00:00,
2012-11-10 09:30:00,55.7,38.8,29.91,WSW,248,3.0,9.0,53,0.00,,,0.14,WUHU216DAVISVP2,2012-11-10 17:30:00,
2012-11-10 10:00:00,56.3,38.9,29.91,SW,225,4.0,10.0,52,0.00,,,0.14,WUHU216DAVISVP2,2012-11-10 18:00:00,
2012-11-10 10:30:00,57.1,39.1,29.90,SW,225,3.0,9.0,51,0.00,,,0.14,WUHU216DAVISVP2,2012-11-10 18:30:00,
2012-11-10 11:00:00,57.7,36.5,29.89,WSW,248,4.0,10.0,45,0.00,,,0.14,WUHU216DAVISVP2,2012-11-10 19:00:00,
2012-11-10 11:30:00,58.8,36.9,29.89,WSW,248,4.0,12.0,44,0.00,,,0.14,WUHU216DAVISVP2,2012-11-10 19:30:00,
2012-11-10 12:00:00,59.9,31.4,29.87,SW,225,4.0,12.0,34,0.00,,,0.14,WUHU216DAVISVP2,2012-11-10 20:00:00,
2012-11-10 12:30:00,59.6,32.6,29.86,SW,225,5.0,16.0,36,0.00,,,0.14,WUHU216DAVISVP2,2012-11-10 20:30:00,
2012-11-10 13:00:00,60.4,29.6,29.85,SW,225,5.0,16.0,31,0.00,,,0.14,WUHU216DAVISVP2,2012-11-10 21:00:00,
2012-11-10 13:30:00,59.9,29.9,29.85,WSW,248,6.0,15.0,32,0.00,,,0.14,WUHU216DAVISVP2,2012-11-10 21:30:00,
2012-11-10 14:00:00,60.1,29.3,29.85,WSW,248,5.0,15.0,31,0.00,,,0.14,WUHU216DAVISVP2,2012-11-10 22:00:00,
2012-11-10 14:30:00,59.5,27.2,29.85,West,270,5.0,12.0,29,0.00,,,0.14,WUHU216DAVISVP2,2012-11-10 22:30:00,
2012-11-10 15:00:00,56.9,28.1,29.85,WSW,248,5.0,13.0,33,0.00,,,0.14,WUHU216DAVISVP2,2012-11-10 23:00:00,
2012-11-10 15:30:00,57.1,27.5,29.85,WNW,293,4.0,9.0,32,0.00,,,0.14,WUHU216DAVISVP2,2012-11-10 23:30:00,
2012-11-10 16:00:00,56.3,28.3,29.86,West,270,4.0,13.0,34,0.00,,,0.14,WUHU216DAVISVP2,2012-11-11 00:00:00,
2012-11-10 16:30:00,55.2,26.6,29.86,WNW,293,4.0,14.0,33,0.00,,,0.14,WUHU216DAVISVP2,2012-11-11 00:30:00,
2012-11-10 17:00:00,54.2,26.4,29.87,WNW,293,3.0,10.0,34,0.00,,,0.14,WUHU216DAVISVP2,2012-11-11 01:00:00,
2012-11-10 17:30:00,54.1,25.6,29.89,WNW,293,3.0,10.0,33,0.00,,,0.14,WUHU216DAVISVP2,2012-11-11 01:30:00,
2012-11-10 18:00:00,54.1,25.6,29.90,West,270,5.0,14.0,33,0.00,,,0.14,WUHU216DAVISVP2,2012-11-11 02:00:00,
2012-11-10 18:30:00,53.4,25.7,29.91,West,270,4.0,13.0,34,0.00,,,0.14,WUHU216DAVISVP2,2012-11-11 02:30:00,
2012-11-10 19:00:00,52.0,27.8,29.92,WNW,293,2.0,7.0,39,0.00,,,0.14,WUHU216DAVISVP2,2012-11-11 03:00:00,
2012-11-10 19:30:00,49.6,29.6,29.94,WNW,293,0.0,3.0,46,0.00,,,0.14,WUHU216DAVISVP2,2012-11-11 03:30:00,
2012-11-10 20:00:00,47.3,30.1,29.95,WNW,293,0.0,1.0,51,0.00,,,0.14,WUHU216DAVISVP2,2012-11-11 04:00:00,
2012-11-10 20:30:00,47.0,30.3,29.96,NW,315,0.0,3.0,52,0.00,,,0.14,WUHU216DAVISVP2,2012-11-11 04:30:00,
2012-11-10 21:00:00,43.0,32.8,29.97,North,0,0.0,0.0,67,0.00,,,0.14,WUHU216DAVISVP2,2012-11-11 05:00:00,
2012-11-10 21:30:00,43.0,31.6,29.98,SSE,158,0.0,4.0,64,0.00,,,0.14,WUHU216DAVISVP2,2012-11-11 05:30:00,
2012-11-10 22:00:00,42.8,31.1,30.00,SE,135,0.0,2.0,63,0.00,,,0.14,WUHU216DAVISVP2,2012-11-11 06:00:00,
2012-11-10 22:30:00,42.4,31.5,30.01,SSE,158,0.0,2.0,65,0.00,,,0.14,WUHU216DAVISVP2,2012-11-11 06:30:00,
2012-11-10 23:00:00,41.8,31.3,30.02,SSW,203,0.0,1.0,66,0.00,,,0.00,WUHU216DAVISVP2,2012-11-11 07:00:00,
2012-11-10 23:30:00,40.8,31.1,30.03,SSE,158,0.0,1.0,68,0.00,,,0.00,WUHU216DAVISVP2,2012-11-11 07:30:00,